sensor_id;sensor_type;location;lat;lon;timestamp;pressure;altitude;pressure_sealevel;temperature;humidity
22047;BME280;11187;49.412;20.956;2023-03-04T00:00:59;94902.88;;;-3.49;100.00
22047;BME280;11187;49.412;20.956;2023-03-04T00:03:32;94895.31;;;-3.51;100.00
22047;BME280;11187;49.412;20.956;2023-03-04T00:06:19;94892.66;;;-3.55;100.00
22047;BME280;11187;49.412;20.956;2023-03-04T00:08:52;94891.63;;;-3.62;100.00
22047;BME280;11187;49.412;20.956;2023-03-04T00:11:39;94895.78;;;-3.63;100.00
22047;BME280;11187;49.412;20.956;2023-03-04T00:14:12;94894.06;;;-3.64;100.00
22047;BME280;11187;49.412;20.956;2023-03-04T00:17:09;94889.97;;;-3.62;100.00
22047;BME280;11187;49.412;20.956;2023-03-04T00:20:03;94890.72;;;-3.64;100.00
22047;BME280;11187;49.412;20.956;2023-03-04T00:22:36;94881.56;;;-3.64;100.00
22047;BME280;11187;49.412;20.956;2023-03-04T00:25:23;94874.88;;;-3.65;100.00
22047;BME280;11187;49.412;20.956;2023-03-04T00:27:56;94877.22;;;-3.69;100.00
22047;BME280;11187;49.412;20.956;2023-03-04T00:30:43;94882.09;;;-3.74;100.00
22047;BME280;11187;49.412;20.956;2023-03-04T00:33:16;94881.94;;;-3.79;100.00
22047;BME280;11187;49.412;20.956;2023-03-04T00:36:03;94868.59;;;-3.79;100.00
22047;BME280;11187;49.412;20.956;2023-03-04T00:38:37;94876.03;;;-3.81;100.00
22047;BME280;11187;49.412;20.956;2023-03-04T00:41:24;94875.22;;;-3.80;100.00
22047;BME280;11187;49.412;20.956;2023-03-04T00:43:57;94878.47;;;-3.82;100.00
22047;BME280;11187;49.412;20.956;2023-03-04T00:46:51;94877.56;;;-3.84;100.00
22047;BME280;11187;49.412;20.956;2023-03-04T00:49:45;94865.13;;;-3.83;100.00
22047;BME280;11187;49.412;20.956;2023-03-04T00:52:18;94863.47;;;-3.82;100.00
22047;BME280;11187;49.412;20.956;2023-03-04T00:55:06;94856.78;;;-3.83;100.00
22047;BME280;11187;49.412;20.956;2023-03-04T00:57:39;94852.53;;;-3.86;100.00
22047;BME280;11187;49.412;20.956;2023-03-04T01:00:33;94850.88;;;-3.85;100.00
22047;BME280;11187;49.412;20.956;2023-03-04T01:03:27;94847.69;;;-3.81;100.00
22047;BME280;11187;49.412;20.956;2023-03-04T01:06:03;94842.56;;;-3.84;100.00
22047;BME280;11187;49.412;20.956;2023-03-04T01:08:50;94835.94;;;-3.82;100.00
22047;BME280;11187;49.412;20.956;2023-03-04T01:11:23;94833.44;;;-3.82;100.00
22047;BME280;11187;49.412;20.956;2023-03-04T01:14:10;94835.09;;;-3.83;100.00
22047;BME280;11187;49.412;20.956;2023-03-04T01:16:44;94827.53;;;-3.84;100.00
22047;BME280;11187;49.412;20.956;2023-03-04T01:19:31;94825.78;;;-3.88;100.00
22047;BME280;11187;49.412;20.956;2023-03-04T01:22:04;94823.31;;;-3.87;100.00
22047;BME280;11187;49.412;20.956;2023-03-04T01:24:52;94822.53;;;-3.84;100.00
22047;BME280;11187;49.412;20.956;2023-03-04T01:27:25;94823.31;;;-3.87;100.00
22047;BME280;11187;49.412;20.956;2023-03-04T01:30:12;94804.94;;;-3.87;100.00
22047;BME280;11187;49.412;20.956;2023-03-04T01:32:45;94801.56;;;-3.89;100.00
22047;BME280;11187;49.412;20.956;2023-03-04T01:35:39;94802.41;;;-3.89;100.00
22047;BME280;11187;49.412;20.956;2023-03-04T01:38:33;94800.66;;;-3.91;100.00
22047;BME280;11187;49.412;20.956;2023-03-04T01:41:06;94793.97;;;-3.92;100.00
22047;BME280;11187;49.412;20.956;2023-03-04T01:43:55;94789.72;;;-3.95;100.00
22047;BME280;11187;49.412;20.956;2023-03-04T01:46:54;94788.06;;;-3.94;100.00
22047;BME280;11187;49.412;20.956;2023-03-04T01:49:53;94800.66;;;-3.91;100.00
22047;BME280;11187;49.412;20.956;2023-03-04T01:52:27;94787.25;;;-3.93;100.00
22047;BME280;11187;49.412;20.956;2023-03-04T01:55:19;94790.56;;;-3.94;100.00
22047;BME280;11187;49.412;20.956;2023-03-04T01:57:52;94790.66;;;-3.91;100.00
22047;BME280;11187;49.412;20.956;2023-03-04T02:00:47;94793.25;;;-3.88;100.00
22047;BME280;11187;49.412;20.956;2023-03-04T02:03:41;94788.22;;;-3.90;100.00
22047;BME280;11187;49.412;20.956;2023-03-04T02:06:14;94789.06;;;-3.89;100.00
22047;BME280;11187;49.412;20.956;2023-03-04T02:09:02;94787.38;;;-3.89;100.00
22047;BME280;11187;49.412;20.956;2023-03-04T02:11:36;94791.63;;;-3.86;100.00
22047;BME280;11187;49.412;20.956;2023-03-04T02:14:23;94787.44;;;-3.87;100.00
22047;BME280;11187;49.412;20.956;2023-03-04T02:16:56;94781.75;;;-3.83;100.00
22047;BME280;11187;49.412;20.956;2023-03-04T02:20:17;94771.75;;;-3.83;100.00
22047;BME280;11187;49.412;20.956;2023-03-04T02:26:10;94766.88;;;-3.79;100.00
22047;BME280;11187;49.412;20.956;2023-03-04T02:28:45;94763.47;;;-3.81;100.00
22047;BME280;11187;49.412;20.956;2023-03-04T02:31:46;94756.06;;;-3.78;100.00
22047;BME280;11187;49.412;20.956;2023-03-04T02:34:45;94756.03;;;-3.79;100.00
22047;BME280;11187;49.412;20.956;2023-03-04T02:37:19;94752.72;;;-3.78;100.00
22047;BME280;11187;49.412;20.956;2023-03-04T02:40:11;94750.28;;;-3.75;100.00
22047;BME280;11187;49.412;20.956;2023-03-04T02:42:46;94742.78;;;-3.75;100.00
22047;BME280;11187;49.412;20.956;2023-03-04T02:48:16;94746.31;;;-3.70;100.00
22047;BME280;11187;49.412;20.956;2023-03-04T02:51:03;94732.97;;;-3.69;100.00
22047;BME280;11187;49.412;20.956;2023-03-04T02:53:37;94732.06;;;-3.71;100.00
22047;BME280;11187;49.412;20.956;2023-03-04T02:56:23;94727.97;;;-3.69;100.00
22047;BME280;11187;49.412;20.956;2023-03-04T02:58:56;94723.81;;;-3.68;100.00
22047;BME280;11187;49.412;20.956;2023-03-04T03:01:43;94722.97;;;-3.69;100.00
22047;BME280;11187;49.412;20.956;2023-03-04T03:04:17;94723.78;;;-3.70;100.00
22047;BME280;11187;49.412;20.956;2023-03-04T03:07:12;94727.13;;;-3.69;100.00
22047;BME280;11187;49.412;20.956;2023-03-04T03:10:06;94717.19;;;-3.68;100.00
22047;BME280;11187;49.412;20.956;2023-03-04T03:12:40;94727.97;;;-3.69;100.00
22047;BME280;11187;49.412;20.956;2023-03-04T03:15:26;94718.81;;;-3.68;100.00
22047;BME280;11187;49.412;20.956;2023-03-04T03:17:59;94717.19;;;-3.66;100.00
22047;BME280;11187;49.412;20.956;2023-03-04T03:20:46;94716.44;;;-3.64;100.00
22047;BME280;11187;49.412;20.956;2023-03-04T03:23:20;94709.03;;;-3.61;100.00
22047;BME280;11187;49.412;20.956;2023-03-04T03:26:06;94705.66;;;-3.61;100.00
22047;BME280;11187;49.412;20.956;2023-03-04T03:28:39;94708.28;;;-3.58;100.00
22047;BME280;11187;49.412;20.956;2023-03-04T03:31:26;94710.84;;;-3.55;100.00
22047;BME280;11187;49.412;20.956;2023-03-04T03:34:00;94705.09;;;-3.52;100.00
22047;BME280;11187;49.412;20.956;2023-03-04T03:36:46;94714.19;;;-3.54;100.00
22047;BME280;11187;49.412;20.956;2023-03-04T03:39:19;94707.50;;;-3.55;100.00
22047;BME280;11187;49.412;20.956;2023-03-04T03:42:13;94710.00;;;-3.55;100.00
22047;BME280;11187;49.412;20.956;2023-03-04T03:44:46;94714.19;;;-3.56;100.00
22047;BME280;11187;49.412;20.956;2023-03-04T03:47:51;94707.47;;;-3.57;100.00
22047;BME280;11187;49.412;20.956;2023-03-04T03:50:24;94700.78;;;-3.58;100.00
22047;BME280;11187;49.412;20.956;2023-03-04T03:53:18;94699.16;;;-3.56;100.00
22047;BME280;11187;49.412;20.956;2023-03-04T03:56:12;94702.50;;;-3.55;100.00
22047;BME280;11187;49.412;20.956;2023-03-04T03:58:45;94697.56;;;-3.52;100.00
22047;BME280;11187;49.412;20.956;2023-03-04T04:01:32;94707.72;;;-3.48;100.00
22047;BME280;11187;49.412;20.956;2023-03-04T04:04:05;94694.31;;;-3.50;100.00
22047;BME280;11187;49.412;20.956;2023-03-04T04:06:52;94696.88;;;-3.48;100.00
22047;BME280;11187;49.412;20.956;2023-03-04T04:09:25;94693.59;;;-3.46;100.00
22047;BME280;11187;49.412;20.956;2023-03-04T04:12:19;94696.09;;;-3.46;100.00
22047;BME280;11187;49.412;20.956;2023-03-04T04:14:52;94696.06;;;-3.47;100.00
22047;BME280;11187;49.412;20.956;2023-03-04T04:17:39;94694.41;;;-3.47;100.00
22047;BME280;11187;49.412;20.956;2023-03-04T04:20:12;94691.06;;;-3.47;100.00
22047;BME280;11187;49.412;20.956;2023-03-04T04:23:06;94689.31;;;-3.50;100.00
22047;BME280;11187;49.412;20.956;2023-03-04T04:26:00;94687.56;;;-3.52;100.00
22047;BME280;11187;49.412;20.956;2023-03-04T04:28:33;94692.50;;;-3.55;100.00
22047;BME280;11187;49.412;20.956;2023-03-04T04:31:20;94680.81;;;-3.55;100.00
22047;BME280;11187;49.412;20.956;2023-03-04T04:33:54;94678.25;;;-3.58;100.00
22047;BME280;11187;49.412;20.956;2023-03-04T04:36:40;94679.78;;;-3.63;100.00
22047;BME280;11187;49.412;20.956;2023-03-04T04:39:13;94681.38;;;-3.65;100.00
22047;BME280;11187;49.412;20.956;2023-03-04T04:42:00;94682.94;;;-3.69;100.00
22047;BME280;11187;49.412;20.956;2023-03-04T04:44:34;94680.38;;;-3.72;100.00
22047;BME280;11187;49.412;20.956;2023-03-04T04:47:20;94675.25;;;-3.75;100.00
22047;BME280;11187;49.412;20.956;2023-03-04T04:49:54;94666.06;;;-3.76;100.00
22047;BME280;11187;49.412;20.956;2023-03-04T04:52:40;94660.88;;;-3.82;100.00
22047;BME280;11187;49.412;20.956;2023-03-04T04:55:13;94657.47;;;-3.86;100.00
22047;BME280;11187;49.412;20.956;2023-03-04T04:58:00;94664.91;;;-3.87;100.00
22047;BME280;11187;49.412;20.956;2023-03-04T05:00:33;94666.44;;;-3.92;100.00
22047;BME280;11187;49.412;20.956;2023-03-04T05:03:27;94669.59;;;-3.98;100.00
22047;BME280;11187;49.412;20.956;2023-03-04T05:06:22;94659.44;;;-4.04;100.00
22047;BME280;11187;49.412;20.956;2023-03-04T05:09:16;94670.16;;;-4.07;100.00
22047;BME280;11187;49.412;20.956;2023-03-04T05:11:49;94670.91;;;-4.11;100.00
22047;BME280;11187;49.412;20.956;2023-03-04T05:14:43;94664.13;;;-4.13;100.00
22047;BME280;11187;49.412;20.956;2023-03-04T05:17:37;94666.47;;;-4.18;100.00
22047;BME280;11187;49.412;20.956;2023-03-04T05:20:11;94661.47;;;-4.20;100.00
22047;BME280;11187;49.412;20.956;2023-03-04T05:23:04;94654.75;;;-4.21;100.00
22047;BME280;11187;49.412;20.956;2023-03-04T05:25:37;94663.06;;;-4.22;100.00
22047;BME280;11187;49.412;20.956;2023-03-04T05:28:31;94665.63;;;-4.20;100.00
22047;BME280;11187;49.412;20.956;2023-03-04T05:31:25;94660.63;;;-4.20;100.00
22047;BME280;11187;49.412;20.956;2023-03-04T05:34:19;94663.13;;;-4.20;100.00
22047;BME280;11187;49.412;20.956;2023-03-04T05:37:13;94673.84;;;-4.23;100.00
22047;BME280;11187;49.412;20.956;2023-03-04T05:39:46;94665.44;;;-4.25;100.00
22047;BME280;11187;49.412;20.956;2023-03-04T05:42:33;94668.81;;;-4.24;100.00
22047;BME280;11187;49.412;20.956;2023-03-04T05:45:20;94661.28;;;-4.26;100.00
22047;BME280;11187;49.412;20.956;2023-03-04T05:48:14;94660.44;;;-4.26;100.00
22047;BME280;11187;49.412;20.956;2023-03-04T05:50:53;94663.00;;;-4.23;100.00
22047;BME280;11187;49.412;20.956;2023-03-04T05:53:40;94662.25;;;-4.21;100.00
22047;BME280;11187;49.412;20.956;2023-03-04T05:56:17;94653.97;;;-4.20;100.00
22047;BME280;11187;49.412;20.956;2023-03-04T05:59:10;94655.50;;;-4.23;100.00
22047;BME280;11187;49.412;20.956;2023-03-04T06:01:45;94658.00;;;-4.23;100.00
22047;BME280;11187;49.412;20.956;2023-03-04T06:04:32;94657.16;;;-4.24;100.00
22047;BME280;11187;49.412;20.956;2023-03-04T06:07:05;94662.31;;;-4.19;100.00
22047;BME280;11187;49.412;20.956;2023-03-04T06:09:59;94662.50;;;-4.13;100.00
22047;BME280;11187;49.412;20.956;2023-03-04T06:12:53;94656.06;;;-4.05;100.00
22047;BME280;11187;49.412;20.956;2023-03-04T06:15:55;94662.91;;;-3.99;100.00
22047;BME280;11187;49.412;20.956;2023-03-04T06:18:29;94661.66;;;-3.85;100.00
22047;BME280;11187;49.412;20.956;2023-03-04T06:21:15;94658.75;;;-3.70;100.00
22047;BME280;11187;49.412;20.956;2023-03-04T06:23:48;94659.97;;;-3.55;100.00
22047;BME280;11187;49.412;20.956;2023-03-04T06:26:42;94657.13;;;-3.38;100.00
22047;BME280;11187;49.412;20.956;2023-03-04T06:29:15;94650.94;;;-3.20;100.00
22047;BME280;11187;49.412;20.956;2023-03-04T06:32:09;94657.38;;;-2.97;100.00
22047;BME280;11187;49.412;20.956;2023-03-04T06:35:03;94652.88;;;-2.77;100.00
22047;BME280;11187;49.412;20.956;2023-03-04T06:37:36;94654.09;;;-2.59;100.00
22047;BME280;11187;49.412;20.956;2023-03-04T06:40:23;94655.41;;;-2.40;100.00
22047;BME280;11187;49.412;20.956;2023-03-04T06:42:56;94656.50;;;-2.29;100.00
22047;BME280;11187;49.412;20.956;2023-03-04T06:45:43;94654.31;;;-2.14;100.00
22047;BME280;11187;49.412;20.956;2023-03-04T06:48:16;94655.50;;;-1.99;100.00
22047;BME280;11187;49.412;20.956;2023-03-04T06:51:10;94657.41;;;-1.87;100.00
22047;BME280;11187;49.412;20.956;2023-03-04T06:53:44;94653.56;;;-1.72;100.00
22047;BME280;11187;49.412;20.956;2023-03-04T06:56:31;94651.28;;;-1.61;100.00
22047;BME280;11187;49.412;20.956;2023-03-04T06:59:04;94656.50;;;-1.50;100.00
22047;BME280;11187;49.412;20.956;2023-03-04T07:01:51;94660.09;;;-1.39;100.00
22047;BME280;11187;49.412;20.956;2023-03-04T07:04:24;94646.13;;;-1.26;100.00
22047;BME280;11187;49.412;20.956;2023-03-04T07:07:11;94646.25;;;-1.20;100.00
22047;BME280;11187;49.412;20.956;2023-03-04T07:09:44;94643.69;;;-1.21;100.00
22047;BME280;11187;49.412;20.956;2023-03-04T07:12:38;94648.63;;;-1.26;100.00
22047;BME280;11187;49.412;20.956;2023-03-04T07:15:32;94647.75;;;-1.28;100.00
22047;BME280;11187;49.412;20.956;2023-03-04T07:18:26;94643.56;;;-1.28;100.00
22047;BME280;11187;49.412;20.956;2023-03-04T07:21:20;94638.75;;;-1.17;100.00
22047;BME280;11187;49.412;20.956;2023-03-04T07:23:56;94628.19;;;-0.99;100.00
22047;BME280;11187;49.412;20.956;2023-03-04T07:26:49;94625.22;;;-0.76;100.00
22047;BME280;11187;49.412;20.956;2023-03-04T07:29:23;94623.06;;;-0.56;99.78
22047;BME280;11187;49.412;20.956;2023-03-04T07:32:16;94625.09;;;-0.32;99.11
22047;BME280;11187;49.412;20.956;2023-03-04T07:34:50;94618.63;;;-0.16;98.60
22047;BME280;11187;49.412;20.956;2023-03-04T07:37:43;94620.50;;;-0.03;97.77
22047;BME280;11187;49.412;20.956;2023-03-04T07:40:37;94614.75;;;0.06;97.50
22047;BME280;11187;49.412;20.956;2023-03-04T07:43:11;94615.69;;;0.15;97.30
22047;BME280;11187;49.412;20.956;2023-03-04T07:46:00;94597.41;;;0.29;97.10
22047;BME280;11187;49.412;20.956;2023-03-04T07:48:34;94597.63;;;0.46;97.41
22047;BME280;11187;49.412;20.956;2023-03-04T07:51:23;94597.88;;;0.67;95.31
22047;BME280;11187;49.412;20.956;2023-03-04T07:53:59;94590.56;;;0.92;95.02
22047;BME280;11187;49.412;20.956;2023-03-04T07:56:53;94591.59;;;1.09;94.54
22047;BME280;11187;49.412;20.956;2023-03-04T07:59:47;94584.16;;;1.26;93.06
22047;BME280;11187;49.412;20.956;2023-03-04T08:02:20;94583.53;;;1.53;91.04
22047;BME280;11187;49.412;20.956;2023-03-04T08:05:07;94578.75;;;1.88;88.59
22047;BME280;11187;49.412;20.956;2023-03-04T08:07:40;94582.25;;;2.09;88.00
22047;BME280;11187;49.412;20.956;2023-03-04T08:10:34;94582.34;;;2.27;87.03
22047;BME280;11187;49.412;20.956;2023-03-04T08:13:09;94579.84;;;2.43;86.29
22047;BME280;11187;49.412;20.956;2023-03-04T08:15:55;94573.97;;;2.47;83.65
22047;BME280;11187;49.412;20.956;2023-03-04T08:18:29;94572.31;;;2.52;83.98
22047;BME280;11187;49.412;20.956;2023-03-04T08:21:17;94569.84;;;2.64;82.33
22047;BME280;11187;49.412;20.956;2023-03-04T08:23:56;94560.59;;;2.74;83.08
22047;BME280;11187;49.412;20.956;2023-03-04T08:26:53;94567.34;;;2.86;82.19
22047;BME280;11187;49.412;20.956;2023-03-04T08:29:47;94566.53;;;2.99;80.74
22047;BME280;11187;49.412;20.956;2023-03-04T08:32:41;94554.75;;;3.07;79.27
22047;BME280;11187;49.412;20.956;2023-03-04T08:35:15;94554.78;;;3.23;80.55
22047;BME280;11187;49.412;20.956;2023-03-04T08:38:01;94550.56;;;3.37;78.49
22047;BME280;11187;49.412;20.956;2023-03-04T08:40:34;94542.13;;;3.49;79.76
22047;BME280;11187;49.412;20.956;2023-03-04T08:43:22;94546.34;;;3.67;76.60
22047;BME280;11187;49.412;20.956;2023-03-04T08:46:16;94541.25;;;3.87;75.79
22047;BME280;11187;49.412;20.956;2023-03-04T08:48:50;94539.50;;;4.00;76.03
22047;BME280;11187;49.412;20.956;2023-03-04T08:51:43;94536.06;;;4.22;75.07
22047;BME280;11187;49.412;20.956;2023-03-04T08:54:37;94527.56;;;4.43;73.86
22047;BME280;11187;49.412;20.956;2023-03-04T08:57:10;94525.72;;;4.73;73.94
22047;BME280;11187;49.412;20.956;2023-03-04T08:59:57;94519.63;;;5.01;72.09
22047;BME280;11187;49.412;20.956;2023-03-04T09:02:31;94518.59;;;5.29;71.57
22047;BME280;11187;49.412;20.956;2023-03-04T09:05:17;94510.72;;;5.56;70.27
22047;BME280;11187;49.412;20.956;2023-03-04T09:07:50;94503.66;;;5.89;69.72
22047;BME280;11187;49.412;20.956;2023-03-04T09:10:45;94508.47;;;6.18;66.02
22047;BME280;11187;49.412;20.956;2023-03-04T09:13:39;94508.22;;;6.40;65.94
22047;BME280;11187;49.412;20.956;2023-03-04T09:16:13;94503.75;;;6.57;63.79
22047;BME280;11187;49.412;20.956;2023-03-04T09:19:00;94511.09;;;6.79;64.81
22047;BME280;11187;49.412;20.956;2023-03-04T09:21:34;94503.13;;;7.03;65.63
22047;BME280;11187;49.412;20.956;2023-03-04T09:24:21;94502.84;;;7.22;63.20
22047;BME280;11187;49.412;20.956;2023-03-04T09:26:54;94502.75;;;7.28;60.61
22047;BME280;11187;49.412;20.956;2023-03-04T09:29:41;94496.00;;;7.27;60.65
22047;BME280;11187;49.412;20.956;2023-03-04T09:32:16;94494.16;;;7.37;58.05
22047;BME280;11187;49.412;20.956;2023-03-04T09:35:03;94484.69;;;7.43;58.69
22047;BME280;11187;49.412;20.956;2023-03-04T09:37:36;94478.53;;;7.57;59.62
22047;BME280;11187;49.412;20.956;2023-03-04T09:40:27;94474.28;;;7.56;56.89
22047;BME280;11187;49.412;20.956;2023-03-04T09:43:03;94465.97;;;7.46;57.13
22047;BME280;11187;49.412;20.956;2023-03-04T09:45:52;94466.22;;;7.32;57.38
22047;BME280;11187;49.412;20.956;2023-03-04T09:48:28;94464.63;;;7.25;56.50
22047;BME280;11187;49.412;20.956;2023-03-04T09:54:09;94451.09;;;7.23;59.20
22047;BME280;11187;49.412;20.956;2023-03-04T09:57:26;94454.53;;;7.19;58.10
22047;BME280;11187;49.412;20.956;2023-03-04T10:00:34;94457.16;;;7.14;57.02
22047;BME280;11187;49.412;20.956;2023-03-04T10:03:44;94447.94;;;7.07;56.08
22047;BME280;11187;49.412;20.956;2023-03-04T10:06:41;94445.63;;;6.90;56.28
22047;BME280;11187;49.412;20.956;2023-03-04T10:09:20;94443.09;;;6.90;54.73
22047;BME280;11187;49.412;20.956;2023-03-04T10:12:14;94440.81;;;6.75;55.39
22047;BME280;11187;49.412;20.956;2023-03-04T10:15:16;94438.34;;;6.67;56.77
22047;BME280;11187;49.412;20.956;2023-03-04T10:23:50;94451.44;;;6.41;63.13
22047;BME280;11187;49.412;20.956;2023-03-04T10:26:47;94475.38;;;6.23;64.36
22047;BME280;11187;49.412;20.956;2023-03-04T10:29:25;94451.91;;;5.99;65.59
22047;BME280;11187;49.412;20.956;2023-03-04T10:32:14;94463.19;;;5.74;66.83
22047;BME280;11187;49.412;20.956;2023-03-04T10:34:48;94457.47;;;5.53;68.26
22047;BME280;11187;49.412;20.956;2023-03-04T10:37:50;94461.00;;;5.38;67.81
22047;BME280;11187;49.412;20.956;2023-03-04T10:40:24;94463.63;;;5.29;69.42
22047;BME280;11187;49.412;20.956;2023-03-04T10:43:19;94456.09;;;5.17;70.55
22047;BME280;11187;49.412;20.956;2023-03-04T10:46:14;94457.91;;;5.02;70.56
22047;BME280;11187;49.412;20.956;2023-03-04T10:49:09;94452.88;;;4.95;71.60
22047;BME280;11187;49.412;20.956;2023-03-04T10:52:18;94449.56;;;4.87;71.50
22047;BME280;11187;49.412;20.956;2023-03-04T10:54:57;94444.53;;;4.82;70.67
22047;BME280;11187;49.412;20.956;2023-03-04T10:57:51;94428.47;;;4.78;71.27
22047;BME280;11187;49.412;20.956;2023-03-04T11:00:34;94431.84;;;4.80;70.85
22047;BME280;11187;49.412;20.956;2023-03-04T11:06:15;94431.88;;;4.76;72.42
22047;BME280;11187;49.412;20.956;2023-03-04T11:09:02;94425.13;;;4.73;72.29
22047;BME280;11187;49.412;20.956;2023-03-04T11:11:45;94421.78;;;4.73;73.06
22047;BME280;11187;49.412;20.956;2023-03-04T11:17:47;94432.78;;;4.67;74.54
22047;BME280;11187;49.412;20.956;2023-03-04T11:20:34;94421.84;;;4.62;75.26
22047;BME280;11187;49.412;20.956;2023-03-04T11:26:02;94425.22;;;4.58;75.93
22047;BME280;11187;49.412;20.956;2023-03-04T11:31:35;94419.38;;;4.54;75.75
22047;BME280;11187;49.412;20.956;2023-03-04T11:37:34;94413.44;;;4.57;75.49
22047;BME280;11187;49.412;20.956;2023-03-04T11:40:56;94423.53;;;4.58;75.81
22047;BME280;11187;49.412;20.956;2023-03-04T11:43:39;94420.19;;;4.52;75.42
22047;BME280;11187;49.412;20.956;2023-03-04T12:00:56;94423.72;;;4.28;77.93
22047;BME280;11187;49.412;20.956;2023-03-04T12:06:55;94418.75;;;4.12;78.07
22047;BME280;11187;49.412;20.956;2023-03-04T12:19:45;94436.59;;;3.82;79.48
22047;BME280;11187;49.412;20.956;2023-03-04T12:22:45;94434.09;;;3.77;79.67
22047;BME280;11187;49.412;20.956;2023-03-04T12:31:29;94434.13;;;3.60;80.80
22047;BME280;11187;49.412;20.956;2023-03-04T12:34:51;94433.31;;;3.55;80.11
22047;BME280;11187;49.412;20.956;2023-03-04T12:37:47;94429.09;;;3.46;81.37
22047;BME280;11187;49.412;20.956;2023-03-04T12:49:28;94435.88;;;3.37;80.38
22047;BME280;11187;49.412;20.956;2023-03-04T12:52:47;94441.78;;;3.31;80.21
22047;BME280;11187;49.412;20.956;2023-03-04T12:55:46;94442.63;;;3.30;80.87
22047;BME280;11187;49.412;20.956;2023-03-04T12:58:40;94443.50;;;3.18;80.01
22047;BME280;11187;49.412;20.956;2023-03-04T13:01:45;94446.03;;;3.13;80.54
22047;BME280;11187;49.412;20.956;2023-03-04T13:04:29;94448.53;;;3.10;80.23
22047;BME280;11187;49.412;20.956;2023-03-04T13:10:34;94438.44;;;2.98;80.63
22047;BME280;11187;49.412;20.956;2023-03-04T13:16:27;94433.38;;;2.95;80.51
22047;BME280;11187;49.412;20.956;2023-03-04T13:19:41;94435.06;;;2.90;79.19
22047;BME280;11187;49.412;20.956;2023-03-04T13:25:39;94435.91;;;2.89;79.81
22047;BME280;11187;49.412;20.956;2023-03-04T13:28:36;94445.16;;;2.79;80.01
22047;BME280;11187;49.412;20.956;2023-03-04T13:33:57;94444.31;;;2.65;80.31
22047;BME280;11187;49.412;20.956;2023-03-04T13:36:34;94437.56;;;2.62;81.21
22047;BME280;11187;49.412;20.956;2023-03-04T13:39:38;94438.41;;;2.54;81.40
22047;BME280;11187;49.412;20.956;2023-03-04T13:42:40;94440.06;;;2.47;82.52
22047;BME280;11187;49.412;20.956;2023-03-04T13:45:34;94445.13;;;2.41;81.83
22047;BME280;11187;49.412;20.956;2023-03-04T13:48:23;94442.59;;;2.38;81.42
22047;BME280;11187;49.412;20.956;2023-03-04T13:54:30;94443.41;;;2.30;82.53
22047;BME280;11187;49.412;20.956;2023-03-04T13:57:24;94450.13;;;2.25;82.11
22047;BME280;11187;49.412;20.956;2023-03-04T13:59:58;94450.97;;;2.21;82.39
22047;BME280;11187;49.412;20.956;2023-03-04T14:02:45;94435.81;;;2.14;82.98
22047;BME280;11187;49.412;20.956;2023-03-04T14:05:19;94452.63;;;2.13;82.87
22047;BME280;11187;49.412;20.956;2023-03-04T14:08:17;94440.78;;;2.01;82.76
22047;BME280;11187;49.412;20.956;2023-03-04T14:11:18;94435.72;;;2.00;83.47
22047;BME280;11187;49.412;20.956;2023-03-04T14:14:25;94434.03;;;1.94;83.78
22047;BME280;11187;49.412;20.956;2023-03-04T14:17:15;94428.97;;;1.90;83.37
22047;BME280;11187;49.412;20.956;2023-03-04T14:20:28;94420.56;;;1.84;82.81
22047;BME280;11187;49.412;20.956;2023-03-04T14:23:23;94427.28;;;1.87;84.04
22047;BME280;11187;49.412;20.956;2023-03-04T14:26:17;94429.81;;;1.85;83.16
22047;BME280;11187;49.412;20.956;2023-03-04T14:29:23;94429.75;;;1.79;83.97
22047;BME280;11187;49.412;20.956;2023-03-04T14:31:57;94435.66;;;1.78;83.44
22047;BME280;11187;49.412;20.956;2023-03-04T14:34:48;94437.34;;;1.76;84.48
22047;BME280;11187;49.412;20.956;2023-03-04T14:37:25;94427.22;;;1.75;83.85
22047;BME280;11187;49.412;20.956;2023-03-04T14:40:19;94425.56;;;1.74;84.03
22047;BME280;11187;49.412;20.956;2023-03-04T14:43:02;94420.50;;;1.71;84.04
22047;BME280;11187;49.412;20.956;2023-03-04T14:45:54;94438.97;;;1.68;84.39
22047;BME280;11187;49.412;20.956;2023-03-04T14:48:31;94420.47;;;1.67;84.86
22047;BME280;11187;49.412;20.956;2023-03-04T14:51:46;94433.91;;;1.65;84.68
22047;BME280;11187;49.412;20.956;2023-03-04T14:54:40;94434.75;;;1.65;84.03
22047;BME280;11187;49.412;20.956;2023-03-04T14:57:34;94441.50;;;1.65;83.80
22047;BME280;11187;49.412;20.956;2023-03-04T15:03:19;94440.63;;;1.58;85.09
22047;BME280;11187;49.412;20.956;2023-03-04T15:05:54;94439.75;;;1.52;85.55
22047;BME280;11187;49.412;20.956;2023-03-04T15:08:41;94434.66;;;1.47;85.66
22047;BME280;11187;49.412;20.956;2023-03-04T15:11:24;94450.59;;;1.37;85.72
22047;BME280;11187;49.412;20.956;2023-03-04T15:14:40;94450.59;;;1.37;85.61
22047;BME280;11187;49.412;20.956;2023-03-04T15:20:25;94445.50;;;1.31;86.04
22047;BME280;11187;49.412;20.956;2023-03-04T15:23:01;94450.53;;;1.29;86.15
22047;BME280;11187;49.412;20.956;2023-03-04T15:25:55;94444.66;;;1.25;86.90
22047;BME280;11187;49.412;20.956;2023-03-04T15:28:35;94437.88;;;1.20;86.89
22047;BME280;11187;49.412;20.956;2023-03-04T15:31:23;94445.44;;;1.18;87.89
22047;BME280;11187;49.412;20.956;2023-03-04T15:33:58;94438.66;;;1.13;87.67
22047;BME280;11187;49.412;20.956;2023-03-04T15:36:58;94444.50;;;1.09;88.42
22047;BME280;11187;49.412;20.956;2023-03-04T15:39:54;94447.03;;;1.09;88.34
22047;BME280;11187;49.412;20.956;2023-03-04T15:42:28;94447.00;;;1.04;89.31
22047;BME280;11187;49.412;20.956;2023-03-04T15:45:25;94452.03;;;1.04;88.73
22047;BME280;11187;49.412;20.956;2023-03-04T15:48:21;94442.81;;;1.04;88.58
22047;BME280;11187;49.412;20.956;2023-03-04T15:51:20;94452.91;;;1.06;88.05
22047;BME280;11187;49.412;20.956;2023-03-04T15:54:15;94460.47;;;1.06;88.26
22047;BME280;11187;49.412;20.956;2023-03-04T15:56:49;94462.16;;;1.06;88.04
22047;BME280;11187;49.412;20.956;2023-03-04T15:59:43;94460.50;;;1.09;87.76
22047;BME280;11187;49.412;20.956;2023-03-04T16:02:37;94457.13;;;1.07;88.01